createdAt,value
2019-02-06T00:01:02.185Z,99.90
2019-02-06T00:03:32.042Z,99.90
2019-02-06T00:06:01.941Z,99.90
2019-02-06T00:08:31.887Z,99.90
2019-02-06T00:11:01.764Z,99.90
2019-02-06T00:13:32.168Z,99.90
2019-02-06T00:16:02.019Z,99.90
2019-02-06T00:18:32.023Z,99.90
2019-02-06T00:21:01.927Z,99.90
2019-02-06T00:23:31.809Z,99.90
2019-02-06T00:26:01.681Z,99.90
2019-02-06T00:28:31.862Z,99.90
2019-02-06T00:31:01.812Z,99.90
2019-02-06T00:33:31.695Z,99.90
2019-02-06T00:36:01.548Z,99.90
2019-02-06T00:38:31.507Z,99.90
2019-02-06T00:41:01.449Z,99.90
2019-02-06T00:43:31.362Z,99.90
2019-02-06T00:46:01.515Z,99.90
2019-02-06T00:48:31.394Z,99.90
2019-02-06T00:51:01.322Z,99.90
2019-02-06T00:53:31.179Z,99.90
2019-02-06T00:56:01.273Z,99.90
2019-02-06T00:58:31.171Z,99.90
2019-02-06T01:01:01.095Z,99.90
2019-02-06T01:03:30.972Z,99.90
2019-02-06T01:06:00.892Z,99.90
2019-02-06T01:08:30.856Z,99.90
2019-02-06T01:11:01.319Z,99.90
2019-02-06T01:13:31.297Z,99.90
2019-02-06T01:16:01.158Z,99.90
2019-02-06T01:18:31.040Z,99.90
2019-02-06T01:21:00.925Z,99.90
2019-02-06T01:23:30.801Z,99.90
2019-02-06T01:26:01.049Z,99.90
2019-02-06T01:28:30.991Z,99.90
2019-02-06T01:31:19.902Z,99.90
2019-02-06T01:33:49.852Z,99.90
2019-02-06T01:36:19.691Z,99.90
2019-02-06T01:38:49.574Z,99.90
2019-02-06T01:41:19.493Z,99.90
2019-02-06T01:43:49.380Z,99.90
2019-02-06T01:46:19.229Z,99.90
2019-02-06T01:48:49.113Z,99.90
2019-02-06T01:51:18.958Z,99.90
2019-02-06T01:53:48.840Z,99.90
2019-02-06T01:56:18.677Z,99.90
2019-02-06T01:58:48.633Z,99.90
2019-02-06T02:01:18.529Z,99.90
2019-02-06T02:03:48.373Z,99.90
2019-02-06T02:06:18.210Z,99.90
2019-02-06T02:08:52.685Z,99.90
2019-02-06T02:11:22.494Z,99.90
2019-02-06T02:13:52.452Z,99.90
2019-02-06T02:16:22.299Z,99.90
2019-02-06T02:18:52.127Z,99.90
2019-02-06T02:21:22.337Z,99.90
2019-02-06T02:23:52.168Z,99.90
2019-02-06T02:26:21.999Z,99.90
2019-02-06T02:28:51.842Z,99.90
2019-02-06T02:31:21.978Z,99.90
2019-02-06T02:33:51.803Z,99.90
2019-02-06T02:36:21.596Z,99.90
2019-02-06T02:38:51.430Z,99.90
2019-02-06T02:41:21.228Z,99.90
2019-02-06T02:43:51.063Z,99.90
2019-02-06T02:46:20.916Z,99.90
2019-02-06T02:48:50.754Z,99.90
2019-02-06T02:51:20.549Z,99.90
2019-02-06T02:53:50.397Z,99.90
2019-02-06T02:56:20.213Z,99.90
2019-02-06T02:58:50.125Z,99.90
2019-02-06T03:01:42.052Z,99.90
2019-02-06T03:04:17.217Z,99.90
2019-02-06T03:06:47.014Z,99.90
2019-02-06T03:09:16.828Z,99.90
2019-02-06T03:11:46.625Z,99.90
2019-02-06T03:14:16.721Z,99.90
2019-02-06T03:16:46.851Z,99.90
2019-02-06T03:19:16.717Z,99.90
2019-02-06T03:21:46.656Z,99.90
2019-02-06T03:24:16.684Z,99.90
2019-02-06T03:26:46.641Z,99.90
2019-02-06T03:29:16.548Z,99.90
2019-02-06T03:31:46.410Z,99.90
2019-02-06T03:34:16.312Z,99.90
2019-02-06T03:36:46.247Z,99.90
2019-02-06T03:39:16.124Z,99.90
2019-02-06T03:41:46.058Z,99.90
2019-02-06T03:44:15.939Z,99.90
2019-02-06T03:46:45.852Z,99.90
2019-02-06T03:49:15.801Z,99.90
2019-02-06T03:51:45.655Z,99.90
2019-02-06T03:54:15.565Z,99.90
2019-02-06T03:56:45.433Z,99.90
2019-02-06T03:59:15.314Z,99.90
2019-02-06T04:01:45.175Z,99.90
2019-02-06T04:04:15.124Z,99.90
2019-02-06T04:06:53.553Z,99.90
2019-02-06T04:09:16.496Z,99.90
2019-02-06T04:11:46.831Z,99.90
2019-02-06T04:14:16.808Z,99.90
2019-02-06T04:16:46.746Z,99.90
2019-02-06T04:19:16.677Z,99.90
2019-02-06T04:21:46.527Z,99.90
2019-02-06T04:24:16.372Z,99.90
2019-02-06T04:26:46.713Z,99.90
2019-02-06T04:29:16.588Z,99.90
2019-02-06T04:31:46.522Z,99.90
2019-02-06T04:34:16.365Z,99.90
2019-02-06T04:36:46.321Z,99.90
2019-02-06T04:39:16.180Z,99.90
2019-02-06T04:41:46.116Z,99.90
2019-02-06T04:44:15.970Z,99.90
2019-02-06T04:46:45.850Z,99.90
2019-02-06T04:49:15.726Z,99.90
2019-02-06T04:51:45.624Z,99.90
2019-02-06T04:54:15.488Z,99.90
2019-02-06T04:56:45.375Z,99.90
2019-02-06T04:59:15.243Z,99.90
2019-02-06T05:01:45.114Z,99.90
2019-02-06T05:04:14.971Z,99.90
2019-02-06T05:06:44.844Z,99.90
2019-02-06T05:09:14.880Z,99.90
2019-02-06T05:11:44.864Z,99.90
2019-02-06T05:14:14.756Z,99.90
2019-02-06T05:16:44.633Z,99.90
2019-02-06T05:19:14.492Z,99.90
2019-02-06T05:21:44.360Z,99.90
2019-02-06T05:24:14.231Z,99.90
2019-02-06T05:26:44.088Z,99.90
2019-02-06T05:29:13.964Z,99.90
2019-02-06T05:31:43.929Z,99.90
2019-02-06T05:34:13.966Z,99.90
2019-02-06T05:36:43.788Z,99.90
2019-02-06T05:39:13.763Z,99.90
2019-02-06T05:41:43.662Z,99.90
2019-02-06T05:44:13.536Z,99.90
2019-02-06T05:46:43.483Z,99.90
2019-02-06T05:49:13.357Z,99.90
2019-02-06T05:51:43.389Z,99.90
2019-02-06T05:54:13.499Z,99.90
2019-02-06T05:56:43.625Z,99.90
2019-02-06T05:59:14.704Z,99.90
2019-02-06T06:01:45.321Z,99.90
2019-02-06T06:04:15.202Z,99.90
2019-02-06T06:06:45.059Z,99.90
2019-02-06T06:09:15.405Z,99.90
2019-02-06T06:11:45.253Z,99.90
2019-02-06T06:14:15.126Z,99.90
2019-02-06T06:16:45.089Z,99.90
2019-02-06T06:19:14.933Z,99.90
2019-02-06T06:21:45.008Z,99.90
2019-02-06T06:24:14.932Z,99.90
2019-02-06T06:26:44.939Z,99.90
2019-02-06T06:29:14.886Z,99.90
2019-02-06T06:31:44.771Z,99.90
2019-02-06T06:34:14.612Z,99.90
2019-02-06T06:36:44.579Z,99.90
2019-02-06T06:39:14.519Z,99.90
2019-02-06T06:41:44.388Z,99.90
2019-02-06T06:44:14.243Z,99.90
2019-02-06T06:46:44.105Z,99.90
2019-02-06T06:49:13.981Z,99.90
2019-02-06T06:51:43.820Z,99.90
2019-02-06T06:54:31.848Z,99.90
2019-02-06T06:57:19.776Z,99.90
2019-02-06T07:00:12.564Z,99.90
2019-02-06T07:03:00.498Z,99.90
2019-02-06T07:05:49.912Z,99.90
2019-02-06T07:08:37.551Z,99.90
2019-02-06T07:11:25.486Z,99.90
2019-02-06T07:14:13.666Z,99.90
2019-02-06T07:17:01.228Z,99.90
2019-02-06T07:19:49.248Z,99.90
2019-02-06T07:22:37.035Z,99.90
2019-02-06T07:25:24.872Z,99.90
2019-02-06T07:28:12.439Z,99.90
2019-02-06T07:31:00.333Z,99.90
2019-02-06T07:33:48.565Z,99.90
2019-02-06T07:36:36.518Z,99.90
2019-02-06T07:39:24.763Z,99.90
2019-02-06T07:42:12.615Z,99.90
2019-02-06T07:45:00.536Z,99.90
2019-02-06T07:47:48.659Z,99.90
2019-02-06T07:50:36.356Z,99.90
2019-02-06T07:53:24.099Z,99.90
2019-02-06T07:56:11.754Z,99.90
2019-02-06T07:59:00.030Z,99.90
2019-02-06T08:01:47.956Z,99.90
2019-02-06T08:04:35.588Z,99.90
2019-02-06T08:07:23.488Z,99.90
2019-02-06T08:10:17.983Z,99.90
2019-02-06T08:13:06.342Z,99.90
2019-02-06T08:15:54.304Z,99.90
2019-02-06T08:18:41.818Z,99.90
2019-02-06T08:21:29.698Z,99.90
2019-02-06T08:27:05.207Z,99.90
2019-02-06T08:29:52.988Z,99.90
2019-02-06T08:32:40.672Z,99.90
2019-02-06T08:35:28.767Z,99.90
2019-02-06T08:38:16.353Z,99.90
2019-02-06T08:41:04.111Z,99.90
2019-02-06T08:43:52.037Z,99.90
2019-02-06T08:46:40.126Z,99.90
2019-02-06T08:49:28.153Z,99.90
2019-02-06T08:52:16.111Z,99.90
2019-02-06T08:55:03.748Z,99.90
2019-02-06T08:57:53.480Z,99.90
2019-02-06T09:00:41.464Z,99.90
2019-02-06T09:03:29.520Z,99.90
2019-02-06T09:06:17.143Z,99.90
2019-02-06T09:09:09.332Z,99.90
2019-02-06T09:11:57.228Z,99.90
2019-02-06T09:14:44.850Z,99.90
2019-02-06T09:17:32.636Z,99.90
2019-02-06T09:20:22.615Z,99.90
2019-02-06T09:23:10.379Z,99.90
2019-02-06T09:25:58.517Z,99.90
2019-02-06T09:28:46.627Z,99.90
2019-02-06T09:31:34.291Z,99.90
2019-02-06T09:34:21.948Z,99.90
2019-02-06T09:37:10.079Z,99.90
2019-02-06T09:39:57.932Z,99.90
2019-02-06T09:42:45.836Z,99.90
2019-02-06T09:45:33.874Z,99.90
2019-02-06T09:48:22.426Z,99.90
2019-02-06T09:51:10.123Z,99.90
2019-02-06T09:53:59.179Z,99.90
2019-02-06T09:56:46.968Z,99.90
2019-02-06T09:59:36.012Z,99.90
2019-02-06T10:02:24.082Z,99.90
2019-02-06T10:05:11.957Z,99.90
2019-02-06T10:07:59.588Z,99.90
2019-02-06T10:10:47.241Z,99.90
2019-02-06T10:13:35.223Z,99.90
2019-02-06T10:16:23.167Z,99.90
2019-02-06T10:19:10.937Z,99.90
2019-02-06T10:21:58.766Z,99.90
2019-02-06T10:24:46.712Z,99.90
2019-02-06T10:27:34.703Z,99.90
2019-02-06T10:30:30.999Z,99.90
2019-02-06T10:33:19.489Z,99.90
2019-02-06T10:36:07.117Z,99.90
2019-02-06T10:38:55.118Z,99.90
2019-02-06T10:41:43.071Z,99.90
2019-02-06T10:44:31.241Z,99.90
2019-02-06T10:47:19.299Z,99.90
2019-02-06T10:50:08.477Z,99.90
2019-02-06T10:52:56.297Z,99.90
2019-02-06T10:55:43.996Z,99.90
2019-02-06T10:58:31.704Z,99.90
2019-02-06T11:01:19.857Z,99.90
2019-02-06T11:04:07.600Z,99.90
2019-02-06T11:06:55.276Z,99.90
2019-02-06T11:09:46.600Z,99.90
2019-02-06T11:12:32.373Z,99.90
2019-02-06T11:15:20.227Z,99.90
2019-02-06T11:18:08.356Z,99.90
2019-02-06T11:20:56.015Z,99.90
2019-02-06T11:23:43.745Z,99.90
2019-02-06T11:26:31.521Z,99.90
2019-02-06T11:29:20.967Z,99.90
2019-02-06T11:32:08.921Z,99.90
2019-02-06T11:34:57.031Z,99.90
2019-02-06T11:37:45.258Z,99.90
2019-02-06T11:40:32.839Z,99.90
2019-02-06T11:43:20.760Z,99.90
2019-02-06T11:46:09.237Z,99.90
2019-02-06T11:48:56.996Z,99.90
2019-02-06T11:51:44.889Z,99.90
2019-02-06T11:54:32.788Z,99.90
2019-02-06T11:57:24.003Z,99.90
2019-02-06T12:00:13.787Z,99.90
2019-02-06T12:03:02.153Z,99.90
2019-02-06T12:05:50.140Z,99.90
2019-02-06T12:08:37.785Z,99.90
2019-02-06T12:11:25.439Z,99.90
2019-02-06T12:14:13.312Z,99.90
2019-02-06T12:17:01.189Z,99.90
2019-02-06T12:19:48.879Z,99.90
2019-02-06T12:22:36.773Z,99.90
2019-02-06T12:25:24.807Z,99.90
2019-02-06T12:28:12.793Z,99.90
2019-02-06T12:31:00.736Z,99.90
2019-02-06T12:33:48.303Z,99.90
2019-02-06T12:36:36.066Z,99.90
2019-02-06T12:39:23.753Z,99.90
2019-02-06T12:42:11.663Z,99.90
2019-02-06T12:44:59.298Z,99.90
2019-02-06T12:47:47.261Z,99.90
2019-02-06T12:50:35.251Z,99.90
2019-02-06T12:53:23.158Z,99.90
2019-02-06T12:56:10.842Z,99.90
2019-02-06T12:58:58.572Z,99.90
2019-02-06T13:01:46.447Z,99.90
2019-02-06T13:04:34.102Z,99.90
2019-02-06T13:07:21.839Z,99.90
2019-02-06T13:10:10.545Z,99.90
2019-02-06T13:12:58.380Z,99.90
2019-02-06T13:15:47.338Z,99.90
2019-02-06T13:18:35.499Z,99.90
2019-02-06T13:21:23.634Z,99.90
2019-02-06T13:24:13.051Z,99.90
2019-02-06T13:27:00.641Z,99.90
2019-02-06T13:29:48.350Z,99.90
2019-02-06T13:32:36.340Z,99.90
2019-02-06T13:35:24.359Z,99.90
2019-02-06T13:38:12.263Z,99.90
2019-02-06T13:41:00.310Z,99.90
2019-02-06T13:43:48.333Z,99.90
2019-02-06T13:46:36.047Z,99.90
2019-02-06T13:49:23.675Z,99.90
2019-02-06T13:52:11.371Z,99.90
2019-02-06T13:54:59.490Z,99.90
2019-02-06T13:57:47.616Z,99.90
2019-02-06T14:00:36.959Z,99.90
2019-02-06T14:03:24.639Z,99.90
2019-02-06T14:06:12.728Z,99.90
2019-02-06T14:09:00.627Z,99.90
2019-02-06T14:11:48.260Z,99.90
2019-02-06T14:14:35.840Z,99.90
2019-02-06T14:17:23.543Z,99.90
2019-02-06T14:20:16.424Z,99.90
2019-02-06T14:23:16.616Z,99.90
2019-02-06T14:26:25.104Z,99.90
2019-02-06T14:29:43.356Z,99.90
2019-02-06T14:33:00.477Z,99.90
2019-02-06T14:35:59.638Z,99.90
2019-02-06T14:39:07.312Z,99.90
2019-02-06T14:42:45.105Z,99.90
2019-02-06T14:46:10.501Z,99.90
2019-02-06T14:49:27.899Z,99.90
2019-02-06T14:52:53.803Z,99.90
2019-02-06T14:56:05.816Z,99.90
2019-02-06T14:59:32.137Z,99.90
2019-02-06T15:02:54.261Z,99.90
2019-02-06T15:06:12.751Z,99.90
2019-02-06T15:09:37.464Z,99.90
2019-02-06T15:13:01.568Z,99.90
2019-02-06T15:16:33.670Z,99.90
2019-02-06T15:20:04.613Z,99.90
2019-02-06T15:23:10.952Z,99.90
2019-02-06T15:26:37.296Z,99.90
2019-02-06T15:29:42.956Z,99.90
2019-02-06T15:33:24.680Z,99.90
2019-02-06T15:36:36.615Z,99.90
2019-02-06T15:40:06.873Z,99.90
2019-02-06T15:43:13.260Z,99.90
2019-02-06T15:46:44.897Z,99.90
2019-02-06T15:50:27.234Z,99.90
2019-02-06T15:53:41.932Z,99.90
2019-02-06T15:57:01.303Z,99.90
2019-02-06T16:00:23.958Z,99.90
2019-02-06T16:04:08.003Z,99.90
2019-02-06T16:07:33.568Z,99.90
2019-02-06T16:10:47.855Z,99.90
2019-02-06T16:14:11.657Z,99.90
2019-02-06T16:17:43.096Z,99.90
2019-02-06T16:21:15.676Z,99.90
2019-02-06T16:24:41.614Z,99.90
2019-02-06T16:28:10.716Z,99.90
2019-02-06T16:32:13.753Z,99.90
2019-02-06T16:35:27.536Z,99.90
2019-02-06T16:38:53.637Z,99.90
2019-02-06T16:42:28.775Z,99.90
2019-02-06T16:46:16.560Z,99.90
2019-02-06T16:49:22.032Z,99.90
2019-02-06T16:52:26.360Z,99.90
2019-02-06T16:56:20.247Z,99.90
2019-02-06T16:59:33.437Z,99.90
2019-02-06T17:03:06.518Z,99.90
2019-02-06T17:06:07.776Z,99.90
2019-02-06T17:09:27.856Z,99.90
2019-02-06T17:12:36.632Z,99.90
2019-02-06T17:16:05.846Z,99.90
2019-02-06T17:19:34.695Z,99.90
2019-02-06T17:22:38.841Z,99.90
2019-02-06T17:25:57.800Z,99.90
2019-02-06T17:29:16.392Z,99.90
2019-02-06T17:32:27.648Z,99.90
2019-02-06T17:35:45.289Z,99.90
2019-02-06T17:38:45.590Z,99.90
2019-02-06T17:42:23.048Z,99.90
2019-02-06T17:45:38.819Z,99.90
2019-02-06T17:48:48.730Z,99.90
2019-02-06T17:52:04.319Z,99.80
2019-02-06T17:55:17.867Z,99.90
2019-02-06T17:58:09.202Z,99.30
2019-02-06T18:01:19.432Z,99.60
2019-02-06T18:04:19.620Z,99.10
2019-02-06T18:07:07.541Z,98.60
2019-02-06T18:09:55.193Z,99.00
2019-02-06T18:12:43.116Z,98.20
2019-02-06T18:15:30.984Z,99.00
2019-02-06T18:18:18.852Z,98.70
2019-02-06T18:21:06.971Z,98.70
2019-02-06T18:23:54.903Z,99.10
2019-02-06T18:26:45.110Z,99.10
2019-02-06T18:29:32.767Z,99.20
2019-02-06T18:32:20.424Z,99.20
2019-02-06T18:35:08.715Z,99.30
2019-02-06T18:37:56.293Z,98.80
2019-02-06T18:40:44.665Z,99.30
2019-02-06T18:43:32.946Z,99.90
2019-02-06T18:46:21.033Z,99.70
2019-02-06T18:49:08.416Z,99.90
2019-02-06T18:51:56.434Z,99.90
2019-02-06T18:54:44.901Z,99.90
2019-02-06T18:57:32.707Z,99.90
2019-02-06T19:00:32.424Z,99.90
2019-02-06T19:03:23.275Z,99.30
2019-02-06T19:06:11.290Z,98.10
2019-02-06T19:08:59.457Z,99.10
2019-02-06T19:11:47.240Z,98.30
2019-02-06T19:14:35.885Z,98.80
2019-02-06T19:17:23.595Z,97.60
2019-02-06T19:20:12.671Z,96.80
2019-02-06T19:23:00.537Z,97.10
2019-02-06T19:25:48.183Z,97.90
2019-02-06T19:28:36.202Z,97.60
2019-02-06T19:31:24.404Z,97.70
2019-02-06T19:34:12.199Z,97.80
2019-02-06T19:36:59.811Z,96.80
2019-02-06T19:39:47.672Z,96.20
2019-02-06T19:42:35.747Z,96.10
2019-02-06T19:45:23.696Z,96.00
2019-02-06T19:48:16.273Z,95.90
2019-02-06T19:51:01.384Z,97.30
2019-02-06T19:53:49.225Z,96.40
2019-02-06T19:56:37.176Z,96.70
2019-02-06T19:59:25.136Z,96.50
2019-02-06T20:02:13.141Z,96.20
2019-02-06T20:05:04.545Z,96.20
2019-02-06T20:07:52.489Z,95.90
2019-02-06T20:10:42.869Z,96.50
2019-02-06T20:13:30.546Z,96.20
2019-02-06T20:16:18.378Z,96.40
2019-02-06T20:19:06.308Z,97.00
2019-02-06T20:21:57.047Z,96.60
2019-02-06T20:24:44.907Z,96.50
2019-02-06T20:27:32.520Z,96.70
2019-02-06T20:30:29.419Z,96.20
2019-02-06T20:33:17.376Z,96.90
2019-02-06T20:36:05.174Z,97.10
2019-02-06T20:38:52.924Z,96.90
2019-02-06T20:41:41.069Z,97.20
2019-02-06T20:44:29.832Z,97.60
2019-02-06T20:47:17.616Z,98.20
2019-02-06T20:50:06.905Z,99.10
2019-02-06T20:52:54.703Z,98.40
2019-02-06T20:55:42.843Z,99.30
2019-02-06T20:58:30.644Z,99.00
2019-02-06T21:01:18.307Z,98.90
2019-02-06T21:04:06.578Z,99.40
2019-02-06T21:06:54.340Z,99.20
2019-02-06T21:09:41.992Z,99.50
2019-02-06T21:12:29.653Z,99.30
2019-02-06T21:15:17.859Z,99.10
2019-02-06T21:18:05.770Z,99.90
2019-02-06T21:20:53.428Z,99.90
2019-02-06T21:23:41.098Z,99.90
2019-02-06T21:26:29.185Z,99.90
2019-02-06T21:29:17.057Z,99.90
2019-02-06T21:32:04.727Z,99.90
2019-02-06T21:34:52.848Z,99.90
2019-02-06T21:37:40.838Z,99.80
2019-02-06T21:40:30.788Z,99.90
2019-02-06T21:43:18.608Z,99.90
2019-02-06T21:46:06.442Z,99.90
2019-02-06T21:48:54.527Z,99.90
2019-02-06T21:51:42.500Z,99.90
2019-02-06T21:54:30.330Z,99.90
2019-02-06T21:57:18.127Z,99.90
2019-02-06T22:00:14.200Z,99.90
2019-02-06T22:03:02.062Z,99.90
2019-02-06T22:05:50.563Z,99.90
2019-02-06T22:08:38.311Z,99.60
2019-02-06T22:11:25.984Z,99.60
2019-02-06T22:14:13.759Z,99.60
2019-02-06T22:17:01.637Z,99.50
2019-02-06T22:19:49.435Z,99.50
2019-02-06T22:22:37.192Z,99.10
2019-02-06T22:25:25.289Z,99.70
2019-02-06T22:28:13.359Z,99.70
2019-02-06T22:31:01.189Z,99.90
2019-02-06T22:33:49.136Z,99.90
2019-02-06T22:36:37.037Z,99.90
2019-02-06T22:39:25.225Z,99.90
2019-02-06T22:42:12.775Z,99.90
2019-02-06T22:45:00.601Z,99.90
2019-02-06T22:47:48.399Z,99.90
2019-02-06T22:50:36.907Z,99.90
2019-02-06T22:53:24.575Z,99.90
2019-02-06T22:56:12.364Z,99.90
2019-02-06T22:59:00.253Z,99.90
2019-02-06T23:01:54.018Z,99.90
2019-02-06T23:04:41.981Z,99.90
2019-02-06T23:07:29.664Z,99.90
2019-02-06T23:10:17.382Z,99.90
2019-02-06T23:13:05.120Z,99.90
2019-02-06T23:15:53.591Z,99.90
2019-02-06T23:18:41.484Z,99.90
2019-02-06T23:21:29.475Z,99.90
2019-02-06T23:24:17.329Z,99.90
2019-02-06T23:27:05.448Z,99.90
2019-02-06T23:29:53.231Z,99.90
2019-02-06T23:32:40.859Z,99.90
2019-02-06T23:35:28.815Z,99.90
2019-02-06T23:38:16.742Z,99.90
2019-02-06T23:41:04.934Z,99.90
2019-02-06T23:43:52.560Z,99.90
2019-02-06T23:46:40.424Z,99.90
2019-02-06T23:49:28.499Z,99.90
2019-02-06T23:52:16.268Z,99.90
2019-02-06T23:55:03.915Z,99.90
2019-02-06T23:57:51.760Z,99.90
